Nearby METAR Reports

 

KLXT - Lees Summit Muni, Missouri, USA
Distance from station: E 5mi, 9km
Updated: Tue, 28-Mar-2017 7:53pm CDT
Overcast
Overcast
 Wind from ENE
Wind: ENE 10 mph , 17 km/h
Temperature: 54°F , 12°C
Dew Point: 52°F , 11°C
Humidity: 94%
Barometer: 30.01 inHg , 1016.3 hPa
Clouds: Overcast
Visibility: 10 miles , 16 km
Cloud details: Overcast 1300 ft
2017/03/29 00:53 KLXT 290053Z AUTO 06009KT 10SM OVC013 12/11 A3001 RMK AO2 SLP164 T01170106 TSNO
KMKC - Kansas City/Dntn, Missouri, USA
Distance from station: NW 12mi, 19km
Updated: Tue, 28-Mar-2017 8:05pm CDT
Overcast
Overcast
 Wind from ENE
Wind: ENE 13 mph , 20 km/h
Temperature: 54°F , 12°C
Dew Point: 50°F , 10°C
Humidity: 88%
Barometer: 30.00 inHg , 1015.9 hPa
Clouds: Overcast
Visibility: 10 miles , 16 km
Cloud details: Mostly cloudy 1500 ft
Overcast 2100 ft
2017/03/29 01:05 KMKC 290105Z 07011KT 10SM BKN015 OVC021 12/10 A3000 RMK AO2 T01220100
 
KIXD - Olathe/Industria, Kansas, USA
Distance from station: WSW 25mi, 41km
Updated: Tue, 28-Mar-2017 7:53pm CDT
Overcast
Overcast
 Wind from NE
Wind: NE 13 mph , 20 km/h
Temperature: 54°F , 12°C
Dew Point: 50°F , 10°C
Humidity: 88%
Barometer: 30.00 inHg , 1015.9 hPa
Clouds: Overcast
Visibility: 9 miles , 14 km
Cloud details: Overcast 1100 ft
2017/03/29 00:53 KIXD 290053Z 05011KT 9SM OVC011 12/10 A3000 RMK AO2 SLP157 T01170100
KMCI - Kansas City/Intl, Missouri, USA
Distance from station: NW 26mi, 42km
Updated: Tue, 28-Mar-2017 7:53pm CDT
Overcast
Overcast
 Wind from ENE
Wind: ENE 13 mph , 20 km/h
Temperature: 54°F , 12°C
Dew Point: 48°F , 9°C
Humidity: 82%
Barometer: 30.02 inHg , 1016.6 hPa
Clouds: Overcast
Visibility: 8 miles , 13 km
Cloud details: Overcast 1100 ft
2017/03/29 00:53 KMCI 290053Z 07011KT 8SM OVC011 12/09 A3002 RMK AO2 SLP165 T01170094
 
KRCM - Warrensburg Skyh, Missouri, USA
Distance from station: ESE 38mi, 62km
Updated: Tue, 28-Mar-2017 8:35pm CDT
Overcast
Overcast
 Wind from NE
Wind: NE 10 mph , 17 km/h
Temperature: 54°F , 12°C
Dew Point: 48°F , 9°C
Humidity: 82%
Barometer: 30.02 inHg , 1016.6 hPa
Clouds: Overcast
Visibility: 10 miles , 16 km
Cloud details: Overcast 4000 ft
2017/03/29 01:35 KRCM 290135Z AUTO 05009KT 10SM OVC040 12/09 A3002 RMK AO2
KLWC - Lawrence, Kansas, USA
Distance from station: W 40mi, 65km
Updated: Tue, 28-Mar-2017 7:52pm CDT
Mist, Overcast
Mist, Overcast
 Wind from NE
Wind: NE 13 mph , 20 km/h
Temperature: 54°F , 12°C
Dew Point: 52°F , 11°C
Humidity: 94%
Barometer: 30.00 inHg , 1015.9 hPa
Summary: Mist
Clouds: Overcast
Visibility: 6 miles , 10 km
Cloud details: Overcast 1100 ft
2017/03/29 00:52 KLWC 290052Z AUTO 05011KT 6SM BR OVC011 12/11 A3000 RMK AO2 SLP159 T01170106
 
KSZL - Whiteman Afb, Missouri, USA
Distance from station: ESE 53mi, 86km
Updated: Tue, 28-Mar-2017 7:58pm CDT
Overcast
Overcast
 Wind from ENE
Wind: ENE 9 mph , 15 km/h
Temperature: 55°F , 13°C
Dew Point: 55°F , 13°C
Humidity: 100%
Barometer: 30.01 inHg , 1016.3 hPa
Clouds: Overcast
Visibility: 10 miles , 16 km
Cloud details: Overcast 3600 ft
2017/03/29 00:58 KSZL 290058Z 06008KT 10SM OVC036 13/13 A3001 RMK AO2A SLP166 T01280126 $
KSTJ - St. Joseph, Missouri, USA
Distance from station: NNW 59mi, 95km
Updated: Tue, 28-Mar-2017 7:53pm CDT
Overcast
Overcast
 Wind from ENE
Wind: ENE 6 mph , 9 km/h
Temperature: 54°F , 12°C
Dew Point: 48°F , 9°C
Humidity: 82%
Barometer: 30.04 inHg , 1017.3 hPa
Clouds: Overcast
Visibility: 10 miles , 16 km
Cloud details: Overcast 1500 ft
2017/03/29 00:53 KSTJ 290053Z AUTO 07005KT 10SM OVC015 12/09 A3004 RMK AO2 SLP175 T01170094
 
KGLY - Clinton, Missouri, USA
Distance from station: SE 61mi, 98km
Updated: Tue, 28-Mar-2017 8:15pm CDT
Mostly cloudy
Mostly cloudy
 Wind from ENE
Wind: ENE 10 mph , 17 km/h
Temperature: 55°F , 13°C
Dew Point: 50°F , 10°C
Humidity: 82%
Barometer: 30.00 inHg , 1015.9 hPa
Clouds: Mostly cloudy
Visibility: 10 miles , 16 km
Cloud details: Mostly cloudy 3500 ft
2017/03/29 01:15 KGLY 290115Z AUTO 07009KT 10SM BKN035 13/10 A3000 RMK AO2
KFOE - Topeka/Forbes, Kansas, USA
Distance from station: W 64mi, 103km
Updated: Tue, 28-Mar-2017 7:53pm CDT
Mist, Overcast
Mist, Overcast
 Wind from NE
Wind: NE 13 mph , 20 km/h
Temperature: 54°F , 12°C
Dew Point: 52°F , 11°C
Humidity: 94%
Barometer: 29.95 inHg , 1014.2 hPa
Summary: Mist
Clouds: Overcast
Visibility: 4 miles , 6 km
Cloud details: Overcast 900 ft
2017/03/29 00:53 KFOE 290053Z 05011KT 4SM BR OVC009 12/11 A2995 RMK AO2 CIG 008V012 PRESFR SLP143 T01170106
 
KDMO - Sedalia, Missouri, USA
Distance from station: ESE 72mi, 116km
Updated: Tue, 28-Mar-2017 7:53pm CDT
Overcast
Overcast
 Wind from NE
Wind: NE 7 mph , 11 km/h
Temperature: 55°F , 13°C
Dew Point: 52°F , 11°C
Humidity: 88%
Barometer: 30.04 inHg , 1017.3 hPa
Clouds: Overcast
Visibility: 10 miles , 16 km
Cloud details: Overcast 3600 ft
2017/03/29 00:53 KDMO 290053Z AUTO 05006KT 10SM OVC036 13/11 A3004 RMK AO2 SLP173 T01330106
KCDJ - Chillicothe, Missouri, USA
Distance from station: NE 74mi, 120km
Updated: Tue, 28-Mar-2017 7:52pm CDT

 Wind from ENE
Wind: ENE 7 mph , 11 km/h
Temperature: 54°F , 12°C
Dew Point: 48°F , 9°C
Humidity: 82%
Barometer: 30.08 inHg , 1018.6 hPa
2017/03/29 00:52 KCDJ 290052Z AUTO 06006KT 12/09 A3008 RMK AO1 SLP187 T01170094 $
 
KFNB - Falls City/Brenn, Nebraska, USA
Distance from station: NW 96mi, 154km
Updated: Tue, 28-Mar-2017 7:53pm CDT
Overcast
Overcast
 Wind from E
Wind: E 6 mph , 9 km/h
Temperature: 52°F , 11°C
Dew Point: 46°F , 8°C
Humidity: 82%
Barometer: 30.04 inHg , 1017.3 hPa
Clouds: Overcast
Visibility: 10 miles , 16 km
Cloud details: Overcast 2000 ft
2017/03/29 00:53 KFNB 290053Z AUTO 08005KT 10SM OVC020 11/08 A3004 RMK AO2 SLP173 T01110083
KVER - Boonville, Missouri, USA
Distance from station: E 96mi, 154km
Updated: Tue, 28-Mar-2017 8:15pm CDT
Overcast
Overcast
 Wind from ENE
Wind: ENE 8 mph , 13 km/h
Temperature: 57°F , 14°C
Dew Point: 48°F , 9°C
Humidity: 72%
Barometer: 30.05 inHg , 1017.6 hPa
Clouds: Overcast
Visibility: 10 miles , 16 km
Cloud details: Mostly cloudy 2600 ft
Overcast 3300 ft
2017/03/29 01:15 KVER 290115Z AUTO 06007KT 10SM BKN026 OVC033 14/09 A3005 RMK AO2 T01360094